Time;durP1;ratioP1;P1;durP2;ratioP2;P2;SDS_P1;SDS_P2;PMS_P1;PMS_P2;Temp;Humidity;BMP_temperature;BMP_pressure;BME280_temperature;BME280_humidity;BME280_pressure;Samples;Min_cycle;Max_cycle;Signal;HPM_P1;HPM_P2
2022/03/15 00:01:28;;;;;;;11.52;3.08;;;;;;;4.06;57.26;101061.00;5031287;28;20050;-43
2022/03/15 00:03:55;;;;;;;12.05;2.55;;;;;;;4.04;56.84;101066.88;5043214;28;20118;-43
2022/03/15 00:06:22;;;;;;;7.38;2.85;;;;;;;3.99;57.30;101065.00;5034710;28;20037;-44
2022/03/15 00:08:48;;;;;;;4.97;1.63;;;;;;;3.97;58.07;101061.53;5042743;28;20107;-43
2022/03/15 00:11:15;;;;;;;5.00;1.67;;;;;;;3.96;58.10;101053.78;5039151;28;20045;-46
2022/03/15 00:13:43;;;;;;;5.65;1.75;;;;;;;3.95;58.18;101057.16;5029445;28;20045;-43
2022/03/15 00:16:10;;;;;;;4.18;1.35;;;;;;;3.93;58.39;101063.91;5033788;28;20132;-44
2022/03/15 00:18:38;;;;;;;7.10;1.42;;;;;;;3.93;58.38;101059.66;5031945;28;20046;-46
2022/03/15 00:21:07;;;;;;;8.18;1.42;;;;;;;3.93;58.37;101063.91;5021318;28;20054;-41
2022/03/15 00:23:34;;;;;;;4.43;1.27;;;;;;;3.92;57.88;101063.00;5008534;28;20641;-41
2022/03/15 00:26:01;;;;;;;5.32;1.17;;;;;;;3.90;58.04;101063.75;5032433;28;20095;-51
2022/03/15 00:28:29;;;;;;;4.40;1.42;;;;;;;3.88;58.02;101061.13;5033971;28;20096;-47
2022/03/15 00:30:55;;;;;;;2.78;1.20;;;;;;;3.85;58.23;101067.00;5039256;28;20045;-42
2022/03/15 00:33:24;;;;;;;6.28;1.38;;;;;;;3.82;58.60;101061.75;5032399;28;20053;-44
2022/03/15 00:35:53;;;;;;;7.50;1.40;;;;;;;3.79;58.68;101071.91;5045290;28;20091;-40
2022/03/15 00:38:20;;;;;;;5.15;2.08;;;;;;;3.75;58.30;101070.00;5036805;28;20055;-47
2022/03/15 00:40:47;;;;;;;7.57;1.85;;;;;;;3.70;58.10;101071.50;5007198;28;20140;-44
2022/03/15 00:43:14;;;;;;;6.15;1.50;;;;;;;3.66;58.12;101069.63;5005824;28;20584;-42
2022/03/15 00:45:40;;;;;;;3.75;1.40;;;;;;;3.62;58.50;101067.75;5021545;28;20050;-45
2022/03/15 00:48:07;;;;;;;5.93;1.15;;;;;;;3.54;59.37;101055.47;5002342;28;20109;-46
2022/03/15 00:50:37;;;;;;;2.90;1.45;;;;;;;3.52;58.46;101066.47;5007558;28;20054;-46
2022/03/15 00:53:04;;;;;;;6.60;1.83;;;;;;;3.46;58.41;101059.41;5035005;28;20098;-42
2022/03/15 00:55:31;;;;;;;9.07;2.85;;;;;;;3.41;59.51;101064.31;5030265;28;20556;-44
2022/03/15 00:57:58;;;;;;;8.18;1.73;;;;;;;3.39;59.31;101065.97;5040314;28;20098;-44
2022/03/15 01:00:31;;;;;;;5.68;1.67;;;;;;;3.38;59.20;101069.31;5024046;28;20437;-45
2022/03/15 01:02:58;;;;;;;5.57;1.75;;;;;;;3.36;59.81;101064.94;5007596;28;20054;-45
2022/03/15 01:05:25;;;;;;;5.65;1.77;;;;;;;3.32;59.86;101067.34;5004916;28;20108;-46
2022/03/15 01:07:52;;;;;;;6.20;2.42;;;;;;;3.31;59.37;101068.19;5006463;28;20482;-40
2022/03/15 01:10:19;;;;;;;3.95;1.83;;;;;;;3.29;59.35;101064.69;5013903;28;20050;-42
2022/03/15 01:12:45;;;;;;;2.70;1.42;;;;;;;3.29;60.46;101063.81;5016935;28;20049;-45
2022/03/15 01:15:12;;;;;;;4.05;1.40;;;;;;;3.30;59.90;101056.19;5027738;28;20045;-45
2022/03/15 01:17:39;;;;;;;3.33;1.40;;;;;;;3.30;59.76;101053.63;5004945;28;20045;-40
2022/03/15 01:20:08;;;;;;;5.18;1.95;;;;;;;3.30;60.00;101045.06;5031286;28;20079;-45
2022/03/15 01:22:35;;;;;;;5.88;1.15;;;;;;;3.30;60.05;101038.25;5028531;28;20054;-44
2022/03/15 01:25:01;;;;;;;6.80;1.17;;;;;;;3.30;60.36;101039.94;5028622;28;20046;-42
2022/03/15 01:27:28;;;;;;;6.35;1.52;;;;;;;3.27;59.94;101029.59;5032884;28;20825;-42
2022/03/15 01:29:57;;;;;;;8.43;2.03;;;;;;;3.20;60.33;101028.44;5032552;28;20546;-43
2022/03/15 01:32:24;;;;;;;5.85;2.05;;;;;;;3.15;59.36;101024.81;5027773;28;20053;-43
2022/03/15 01:34:51;;;;;;;5.78;2.22;;;;;;;3.11;59.55;101023.81;5031936;28;20040;-47
2022/03/15 01:37:17;;;;;;;4.93;1.98;;;;;;;3.07;59.76;101022.78;5033142;28;20057;-45
2022/03/15 01:39:44;;;;;;;7.10;1.88;;;;;;;3.03;59.78;101026.00;5033090;28;20048;-42
2022/03/15 01:42:11;;;;;;;5.22;1.50;;;;;;;3.01;60.60;101022.50;5032394;28;20502;-44
2022/03/15 01:44:45;;;;;;;7.90;2.30;;;;;;;2.98;60.59;101022.38;5031679;28;20049;-46
2022/03/15 01:47:11;;;;;;;9.30;2.20;;;;;;;2.89;60.86;101027.97;5022093;28;20049;-42
2022/03/15 01:49:38;;;;;;;4.93;2.38;;;;;;;2.79;59.98;101025.78;5033257;28;20094;-45
2022/03/15 01:52:05;;;;;;;5.32;2.35;;;;;;;2.72;61.08;101023.75;5034402;28;20094;-41
2022/03/15 01:54:32;;;;;;;7.63;2.70;;;;;;;2.67;60.28;101015.91;5029394;28;20045;-48
2022/03/15 01:56:59;;;;;;;8.38;2.58;;;;;;;2.64;60.48;101016.59;5021077;28;20108;-45
2022/03/15 01:59:26;;;;;;;11.35;3.08;;;;;;;2.63;60.55;101016.56;5031194;28;20114;-46
2022/03/15 02:01:54;;;;;;;5.80;1.80;;;;;;;2.57;61.45;101010.34;5032176;28;20049;-42
2022/03/15 02:04:21;;;;;;;7.18;1.80;;;;;;;2.50;60.64;101007.47;5032203;28;20154;-45
2022/03/15 02:06:50;;;;;;;9.43;2.35;;;;;;;2.45;61.58;101004.69;5033210;28;20053;-44
2022/03/15 02:09:35;;;;;;;7.78;1.95;;;;;;;2.38;60.81;100995.84;5032397;28;20046;-40
2022/03/15 02:12:03;;;;;;;4.43;1.67;;;;;;;2.38;61.00;100997.53;5031841;28;20052;-44
2022/03/15 02:14:30;;;;;;;4.85;1.73;;;;;;;2.34;60.65;100995.63;5020919;28;20100;-45
2022/03/15 02:16:56;;;;;;;5.80;1.98;;;;;;;2.29;60.07;100988.63;5031965;28;20049;-43
2022/03/15 02:19:23;;;;;;;3.78;1.52;;;;;;;2.27;60.40;100982.56;5028452;28;20042;-42
2022/03/15 02:21:51;;;;;;;4.82;2.13;;;;;;;2.26;60.54;100985.94;5028278;28;20065;-42
2022/03/15 02:24:18;;;;;;;3.13;1.23;;;;;;;2.26;61.62;100988.47;5026407;28;20111;-41
2022/03/15 02:26:44;;;;;;;7.03;1.60;;;;;;;2.27;60.69;100987.66;5028388;28;20073;-42
2022/03/15 02:29:11;;;;;;;10.68;1.80;;;;;;;2.25;61.55;100981.63;5028087;28;20107;-43
2022/03/15 02:31:38;;;;;;;5.97;2.55;;;;;;;2.25;61.47;100981.63;5028714;28;20057;-42
2022/03/15 02:34:06;;;;;;;8.30;2.10;;;;;;;2.23;61.99;100979.81;5034269;28;20107;-41
2022/03/15 02:36:33;;;;;;;5.57;2.03;;;;;;;2.21;61.40;100973.72;5030522;28;20395;-43
2022/03/15 02:38:59;;;;;;;6.07;2.05;;;;;;;2.19;60.97;100966.00;5029020;28;20057;-48
2022/03/15 02:41:26;;;;;;;6.00;2.10;;;;;;;2.16;61.07;100955.66;5030603;28;20049;-42
2022/03/15 02:43:56;;;;;;;6.60;2.78;;;;;;;2.15;61.42;100956.44;5025069;28;20095;-40
2022/03/15 02:46:32;;;;;;;4.88;2.10;;;;;;;2.13;61.32;100950.38;5027443;28;20048;-42
2022/03/15 02:48:59;;;;;;;6.40;1.92;;;;;;;2.13;61.42;100958.06;5022732;28;20118;-42
2022/03/15 02:51:25;;;;;;;5.03;2.00;;;;;;;2.12;61.44;100949.50;5027749;28;20041;-41
2022/03/15 02:53:53;;;;;;;7.70;2.25;;;;;;;2.11;61.56;100942.66;5033072;28;20653;-44
2022/03/15 02:56:21;;;;;;;8.07;2.55;;;;;;;2.09;61.96;100938.28;5035184;28;20045;-44
2022/03/15 02:58:48;;;;;;;6.32;2.45;;;;;;;2.04;62.49;100936.38;5034334;28;20048;-45
2022/03/15 03:01:15;;;;;;;5.10;2.35;;;;;;;2.01;61.29;100931.13;5031795;28;20094;-44
2022/03/15 03:03:42;;;;;;;5.50;2.05;;;;;;;2.01;61.17;100931.13;5025703;28;20079;-40
2022/03/15 03:06:09;;;;;;;5.57;2.55;;;;;;;2.00;62.71;100934.50;5031577;28;20049;-47
2022/03/15 03:08:36;;;;;;;5.97;2.10;;;;;;;2.01;61.68;100931.13;5023833;28;20053;-44
2022/03/15 03:11:02;;;;;;;8.18;2.72;;;;;;;2.01;61.43;100920.00;5028534;28;20119;-43
2022/03/15 03:13:31;;;;;;;6.68;2.00;;;;;;;2.01;61.93;100925.13;5007888;28;20069;-42
2022/03/15 03:16:00;;;;;;;5.35;1.67;;;;;;;2.00;62.33;100924.28;5004918;28;20053;-42
2022/03/15 03:18:32;;;;;;;11.05;1.88;;;;;;;1.97;62.38;100924.13;5015350;28;20037;-46
2022/03/15 03:21:01;;;;;;;10.18;2.10;;;;;;;1.96;61.94;100912.13;5035838;28;20074;-45
2022/03/15 03:23:29;;;;;;;10.57;2.85;;;;;;;1.94;63.01;100918.84;5037185;28;20053;-44
2022/03/15 03:25:56;;;;;;;6.68;2.78;;;;;;;1.94;62.17;100918.84;5022955;28;20099;-42
2022/03/15 03:28:23;;;;;;;6.85;2.38;;;;;;;1.92;61.56;100921.34;5038687;28;20049;-42
2022/03/15 03:30:51;;;;;;;12.27;4.10;;;;;;;1.89;61.86;100915.22;5031817;28;20119;-43
2022/03/15 03:33:19;;;;;;;10.27;3.85;;;;;;;1.88;62.05;100909.22;5038982;28;20532;-42
2022/03/15 03:35:49;;;;;;;7.85;2.42;;;;;;;1.87;62.91;100911.72;5036488;28;20116;-45
2022/03/15 03:38:17;;;;;;;9.82;3.35;;;;;;;1.87;62.78;100912.59;5026378;28;20044;-41
2022/03/15 03:40:44;;;;;;;9.13;4.57;;;;;;;1.88;63.24;100910.91;5027578;28;22453;-41
2022/03/15 03:43:11;;;;;;;12.60;3.03;;;;;;;1.91;62.14;100913.59;5027259;28;20053;-43
2022/03/15 03:45:38;;;;;;;6.85;2.75;;;;;;;1.92;62.43;100925.56;5029207;28;20049;-42
2022/03/15 03:48:07;;;;;;;6.68;2.53;;;;;;;1.94;62.92;100929.09;5031992;28;20478;-44
2022/03/15 03:50:35;;;;;;;6.63;2.90;;;;;;;1.94;63.59;100929.09;5033369;28;20045;-43
2022/03/15 03:53:03;;;;;;;5.22;2.35;;;;;;;1.93;62.84;100922.22;5035004;28;20104;-41
2022/03/15 03:55:31;;;;;;;6.30;2.67;;;;;;;1.95;62.19;100928.28;5040453;28;20530;-41
2022/03/15 03:57:57;;;;;;;6.32;2.70;;;;;;;1.96;62.37;100932.56;5034655;28;20076;-43
2022/03/15 04:00:24;;;;;;;5.25;2.05;;;;;;;1.97;62.72;100929.22;5023277;28;20050;-42
2022/03/15 04:02:57;;;;;;;6.28;2.75;;;;;;;2.00;62.77;100942.16;5010762;28;20104;-45
2022/03/15 04:05:25;;;;;;;8.82;2.30;;;;;;;2.02;63.00;100948.19;5024697;28;20046;-43
2022/03/15 04:07:52;;;;;;;9.32;2.65;;;;;;;2.05;64.32;100953.47;5029285;28;20109;-42
2022/03/15 04:10:22;;;;;;;9.07;3.08;;;;;;;2.08;63.24;100946.72;5009096;28;20555;-43
2022/03/15 04:12:50;;;;;;;6.07;2.65;;;;;;;2.12;63.76;100953.72;5004713;28;20065;-41
2022/03/15 04:15:17;;;;;;;7.93;2.38;;;;;;;2.16;64.29;100956.50;5012482;28;20053;-46
2022/03/15 04:17:44;;;;;;;5.80;1.83;;;;;;;2.19;63.37;100958.31;5027885;28;20045;-42
2022/03/15 04:20:11;;;;;;;6.25;2.22;;;;;;;2.22;64.53;100957.59;5027133;28;20053;-42
2022/03/15 04:22:38;;;;;;;7.40;2.42;;;;;;;2.25;64.25;100956.06;5038045;28;20053;-42
2022/03/15 04:25:05;;;;;;;4.90;2.33;;;;;;;2.28;65.08;100951.09;5040113;28;20757;-45
2022/03/15 04:27:32;;;;;;;7.32;2.38;;;;;;;2.31;64.25;100940.13;5037991;28;20111;-44
2022/03/15 04:29:59;;;;;;;5.88;2.33;;;;;;;2.35;65.38;100941.13;5037708;28;20104;-46
2022/03/15 04:32:25;;;;;;;4.97;2.58;;;;;;;2.41;64.38;100936.31;5029881;28;20049;-41
2022/03/15 04:34:52;;;;;;;7.60;2.72;;;;;;;2.46;63.68;100929.69;5025005;28;20053;-43
2022/03/15 04:37:20;;;;;;;6.53;2.28;;;;;;;2.43;63.93;100917.66;5032220;28;20099;-40
2022/03/15 04:39:47;;;;;;;7.93;2.53;;;;;;;2.39;63.79;100920.00;5028040;28;20063;-40
2022/03/15 04:42:14;;;;;;;7.93;3.45;;;;;;;2.23;64.11;100919.31;5030532;28;20090;-41
2022/03/15 04:44:40;;;;;;;5.95;2.42;;;;;;;2.07;65.08;100910.09;5034768;28;20053;-40
2022/03/15 04:47:07;;;;;;;7.68;2.40;;;;;;;1.95;63.43;100900.16;5027847;28;20103;-44
2022/03/15 04:49:34;;;;;;;5.85;2.53;;;;;;;1.84;64.05;100896.22;5029738;28;20053;-40
2022/03/15 04:52:02;;;;;;;9.20;3.28;;;;;;;1.78;64.41;100887.50;5032705;28;20128;-41
2022/03/15 04:54:30;;;;;;;8.25;2.22;;;;;;;1.73;64.89;100894.06;5027122;28;20381;-40
2022/03/15 04:56:56;;;;;;;7.50;2.40;;;;;;;1.68;65.13;100890.41;5032817;28;20069;-39
2022/03/15 04:59:23;;;;;;;6.22;2.45;;;;;;;1.64;65.21;100889.41;5032098;28;20049;-43
2022/03/15 05:01:50;;;;;;;9.10;2.53;;;;;;;1.63;64.75;100881.66;5032446;28;20079;-41
2022/03/15 05:04:17;;;;;;;13.52;2.90;;;;;;;1.66;64.21;100876.69;5033705;28;20047;-42
2022/03/15 05:06:43;;;;;;;12.88;2.45;;;;;;;1.69;64.27;100881.94;5036712;28;20045;-40
2022/03/15 05:09:10;;;;;;;10.77;3.72;;;;;;;1.70;64.91;100873.50;5026564;28;20567;-46
2022/03/15 05:11:36;;;;;;;6.90;3.30;;;;;;;1.72;65.21;100876.97;5033897;28;20061;-40
2022/03/15 05:14:03;;;;;;;10.57;3.13;;;;;;;1.77;64.95;100878.09;5027119;28;20765;-43
2022/03/15 05:16:29;;;;;;;5.90;2.60;;;;;;;1.82;64.15;100878.28;5030068;28;20104;-43
2022/03/15 05:18:57;;;;;;;10.50;3.85;;;;;;;1.89;64.16;100880.31;5036612;28;20057;-40
2022/03/15 05:21:25;;;;;;;7.53;3.13;;;;;;;1.92;64.20;100879.56;5027862;28;20734;-43
2022/03/15 05:23:53;;;;;;;7.43;3.05;;;;;;;1.94;64.16;100867.75;5032368;28;20048;-43
2022/03/15 05:26:22;;;;;;;10.15;3.38;;;;;;;1.96;64.92;100863.56;5030372;28;20045;-41
2022/03/15 05:28:49;;;;;;;8.07;4.22;;;;;;;1.99;63.99;100861.16;5028610;28;20551;-42
2022/03/15 05:31:17;;;;;;;6.15;3.60;;;;;;;2.03;64.40;100855.38;5034046;28;20052;-41
2022/03/15 05:33:44;;;;;;;9.55;3.75;;;;;;;2.04;64.14;100859.72;5034280;28;20132;-42
2022/03/15 05:36:10;;;;;;;9.38;3.00;;;;;;;2.04;65.08;100869.06;5022649;28;20092;-42
2022/03/15 05:38:37;;;;;;;9.15;2.92;;;;;;;2.03;64.56;100869.88;5034948;28;20053;-40
2022/03/15 05:41:04;;;;;;;10.20;4.15;;;;;;;2.02;65.47;100876.66;5036267;28;20052;-44
2022/03/15 05:43:51;;;;;;;10.30;4.75;;;;;;;1.99;65.11;100880.75;5034946;28;20064;-43
2022/03/15 05:46:18;;;;;;;12.07;4.25;;;;;;;1.97;64.81;100878.13;5027750;28;20045;-42
2022/03/15 05:48:44;;;;;;;10.55;4.00;;;;;;;1.98;64.94;100863.66;5026692;28;20045;-43
2022/03/15 05:51:11;;;;;;;12.75;5.70;;;;;;;2.00;64.21;100862.94;5031404;28;20053;-40
2022/03/15 05:53:37;;;;;;;10.80;4.22;;;;;;;2.03;64.83;100867.31;5028144;28;20099;-43
2022/03/15 05:56:04;;;;;;;5.95;2.83;;;;;;;2.04;65.26;100869.94;5028830;28;20651;-45
2022/03/15 05:58:31;;;;;;;6.50;2.40;;;;;;;2.01;64.89;100869.78;5031377;28;20505;-44
2022/03/15 06:00:58;;;;;;;8.95;3.28;;;;;;;1.99;65.41;100856.06;5017053;28;20050;-42
2022/03/15 06:03:26;;;;;;;6.63;3.17;;;;;;;1.98;64.17;100849.22;5005399;28;20068;-47
2022/03/15 06:05:53;;;;;;;8.02;3.22;;;;;;;1.98;65.27;100854.31;5002773;28;20045;-41
2022/03/15 06:08:19;;;;;;;10.50;4.30;;;;;;;1.99;64.08;100861.16;5028402;28;20053;-42
2022/03/15 06:10:46;;;;;;;8.85;4.07;;;;;;;1.97;65.54;100860.25;5033682;28;20057;-45
2022/03/15 06:13:13;;;;;;;11.07;4.40;;;;;;;1.95;66.27;100873.75;5024460;28;20099;-40
2022/03/15 06:15:40;;;;;;;9.57;3.67;;;;;;;1.95;64.98;100868.66;5029281;28;20092;-44
2022/03/15 06:18:07;;;;;;;8.95;3.63;;;;;;;1.95;65.71;100872.06;5027842;28;20111;-41
2022/03/15 06:20:35;;;;;;;12.20;4.03;;;;;;;1.97;65.74;100865.34;5024326;28;20464;-44
2022/03/15 06:23:03;;;;;;;8.10;4.35;;;;;;;1.97;65.64;100862.78;5029220;28;20472;-41
2022/03/15 06:25:30;;;;;;;10.73;2.70;;;;;;;1.96;64.70;100861.03;5027215;28;20406;-41
2022/03/15 06:27:57;;;;;;;9.70;3.60;;;;;;;1.96;65.11;100861.03;5035946;28;20143;-46
2022/03/15 06:30:24;;;;;;;14.95;4.35;;;;;;;1.96;65.66;100848.25;5031676;28;20048;-41
2022/03/15 06:32:51;;;;;;;11.65;4.00;;;;;;;1.99;65.74;100845.84;5034308;28;20060;-45
2022/03/15 06:35:19;;;;;;;10.95;4.25;;;;;;;2.01;65.27;100851.91;5027796;28;20053;-42
2022/03/15 06:37:49;;;;;;;12.60;4.50;;;;;;;2.04;65.66;100848.59;5029940;28;20215;-42
2022/03/15 06:40:34;;;;;;;13.77;5.57;;;;;;;2.05;65.44;100851.22;5028761;28;20099;-44
2022/03/15 06:43:02;;;;;;;15.00;4.97;;;;;;;2.09;65.49;100843.72;5031158;28;20119;-44
2022/03/15 06:45:28;;;;;;;14.23;5.32;;;;;;;2.12;65.25;100836.16;5025169;28;20045;-43
2022/03/15 06:47:55;;;;;;;12.75;4.70;;;;;;;2.15;65.79;100839.75;5038682;28;20445;-42
2022/03/15 06:50:22;;;;;;;9.48;4.50;;;;;;;2.19;65.11;100833.06;5025626;28;20045;-45
2022/03/15 06:52:49;;;;;;;8.95;4.05;;;;;;;2.22;66.09;100837.44;5029054;28;20776;-43
2022/03/15 06:55:16;;;;;;;10.23;4.28;;;;;;;2.23;65.42;100840.06;5030673;28;20610;-45
2022/03/15 06:57:43;;;;;;;13.20;4.55;;;;;;;2.24;66.63;100836.72;5013966;28;20049;-41
2022/03/15 07:00:12;;;;;;;15.32;5.80;;;;;;;2.25;65.09;100833.34;5006934;28;20057;-41
2022/03/15 07:02:38;;;;;;;13.55;5.82;;;;;;;2.27;65.47;100836.84;4998300;28;20058;-45
2022/03/15 07:05:06;;;;;;;16.13;5.93;;;;;;;2.29;66.81;100830.13;5004057;28;20069;-48
2022/03/15 07:07:33;;;;;;;13.82;5.47;;;;;;;2.31;66.06;100828.53;5024119;28;20474;-41
2022/03/15 07:10:01;;;;;;;14.25;5.65;;;;;;;2.33;67.28;100828.56;5025803;28;20057;-45
2022/03/15 07:12:28;;;;;;;11.70;5.05;;;;;;;2.35;66.48;100833.75;5024033;28;20452;-44
2022/03/15 07:14:54;;;;;;;10.00;4.07;;;;;;;2.37;66.99;100829.59;5023362;28;20061;-41
2022/03/15 07:17:21;;;;;;;9.27;4.20;;;;;;;2.38;65.76;100826.22;5026966;28;20103;-44
2022/03/15 07:19:48;;;;;;;13.77;5.53;;;;;;;2.37;66.11;100817.69;5021589;28;20057;-44
2022/03/15 07:22:14;;;;;;;8.25;3.90;;;;;;;2.38;66.36;100809.19;5033276;28;20095;-43
2022/03/15 07:24:41;;;;;;;11.85;4.15;;;;;;;2.42;65.86;100805.06;5032842;28;20050;-43
2022/03/15 07:27:07;;;;;;;12.68;4.03;;;;;;;2.46;65.92;100806.97;5035081;28;20053;-44
2022/03/15 07:29:34;;;;;;;11.60;4.10;;;;;;;2.44;66.03;100798.38;5027508;28;20096;-42
2022/03/15 07:32:02;;;;;;;10.52;3.75;;;;;;;2.43;65.43;100791.47;5024121;28;20061;-41
2022/03/15 07:34:28;;;;;;;8.68;3.60;;;;;;;2.44;65.59;100783.88;5027410;28;20057;-44
2022/03/15 07:36:55;;;;;;;17.25;5.82;;;;;;;2.50;67.26;100778.16;5020702;28;20042;-42
2022/03/15 07:39:22;;;;;;;24.77;6.00;;;;;;;2.55;67.86;100786.91;5032288;28;20050;-44
2022/03/15 07:41:49;;;;;;;16.13;6.68;;;;;;;2.95;67.14;100785.09;5017072;28;20046;-44
2022/03/15 07:44:16;;;;;;;17.60;6.60;;;;;;;3.77;67.21;100801.00;5007326;28;20050;-43
2022/03/15 07:46:48;;;;;;;15.98;6.88;;;;;;;4.69;66.49;100801.66;5004423;28;20053;-41
2022/03/15 07:49:20;;;;;;;21.67;8.63;;;;;;;5.67;65.48;100796.97;5000664;28;20046;-45
2022/03/15 07:51:48;;;;;;;16.10;7.22;;;;;;;6.60;63.79;100796.13;5015062;28;20104;-42
2022/03/15 07:54:16;;;;;;;14.75;7.10;;;;;;;7.51;63.33;100798.22;5012656;28;20053;-51
2022/03/15 07:56:44;;;;;;;22.83;8.10;;;;;;;8.28;61.94;100795.47;5019600;28;20107;-42
2022/03/15 07:59:11;;;;;;;22.33;7.80;;;;;;;8.76;59.88;100783.44;5000529;28;20054;-43
2022/03/15 08:01:38;;;;;;;18.25;7.82;;;;;;;9.03;58.92;100776.09;5005387;28;20120;-43
2022/03/15 08:04:05;;;;;;;15.68;7.30;;;;;;;9.34;58.50;100771.38;5016817;28;20071;-43
2022/03/15 08:06:35;;;;;;;16.58;8.27;;;;;;;9.69;58.41;100778.75;5025547;28;20519;-46
2022/03/15 08:09:03;;;;;;;14.63;6.85;;;;;;;10.19;58.34;100783.63;5032826;28;20055;-46
2022/03/15 08:11:30;;;;;;;14.82;6.35;;;;;;;10.72;57.64;100778.97;5031593;28;20440;-48
2022/03/15 08:13:58;;;;;;;14.90;7.07;;;;;;;11.34;56.70;100789.78;5035188;28;20076;-45
2022/03/15 08:16:25;;;;;;;13.52;7.00;;;;;;;11.99;56.05;100794.41;5035327;28;20115;-43
2022/03/15 08:18:53;;;;;;;17.27;7.15;;;;;;;12.72;55.63;100801.50;5030169;28;20053;-41
2022/03/15 08:21:22;;;;;;;15.43;6.90;;;;;;;13.48;53.82;100798.84;5026959;28;20053;-45
2022/03/15 08:23:50;;;;;;;15.73;7.45;;;;;;;14.14;53.03;100804.69;5009849;28;20054;-46
2022/03/15 08:26:17;;;;;;;15.85;7.47;;;;;;;14.87;52.46;100790.31;5017936;28;20054;-41
2022/03/15 08:28:45;;;;;;;16.42;7.15;;;;;;;15.37;50.72;100800.25;5012184;28;20050;-42
2022/03/15 08:31:12;;;;;;;19.92;7.97;;;;;;;15.70;50.51;100806.88;5009668;28;20556;-47
2022/03/15 08:33:39;;;;;;;15.27;7.80;;;;;;;16.04;50.19;100801.22;5013555;28;20057;-42
2022/03/15 08:36:06;;;;;;;12.90;6.72;;;;;;;16.34;49.82;100813.91;5011029;28;20678;-44
2022/03/15 08:38:33;;;;;;;15.35;7.10;;;;;;;16.78;48.96;100814.09;5017585;28;21203;-43
2022/03/15 08:40:59;;;;;;;20.55;8.57;;;;;;;17.23;47.82;100809.88;5017150;28;20140;-45
2022/03/15 08:43:26;;;;;;;19.08;8.15;;;;;;;17.54;47.26;100812.78;5028249;28;20871;-44
2022/03/15 08:45:53;;;;;;;15.65;7.45;;;;;;;17.91;47.60;100812.91;5036013;28;20379;-50
2022/03/15 08:48:20;;;;;;;14.00;6.32;;;;;;;18.38;45.62;100812.81;5027206;28;20095;-47
2022/03/15 08:50:46;;;;;;;13.43;6.25;;;;;;;18.92;45.42;100808.00;5029299;28;20084;-46
2022/03/15 08:53:13;;;;;;;14.25;6.00;;;;;;;19.14;44.99;100802.22;5028810;28;20656;-44
2022/03/15 08:55:41;;;;;;;10.60;5.78;;;;;;;19.26;44.02;100807.13;5035715;28;20112;-47
2022/03/15 08:58:08;;;;;;;15.35;7.22;;;;;;;19.56;44.22;100808.97;5028473;28;20057;-48
2022/03/15 09:00:34;;;;;;;9.45;5.32;;;;;;;19.95;43.11;100804.34;5029085;28;20045;-46
2022/03/15 09:03:01;;;;;;;11.23;5.15;;;;;;;20.02;41.48;100806.78;5022007;28;20061;-47
2022/03/15 09:05:28;;;;;;;11.80;6.30;;;;;;;20.20;41.97;100804.53;4999799;28;20744;-46
2022/03/15 09:07:55;;;;;;;11.43;5.43;;;;;;;19.87;41.47;100802.84;5020073;28;20478;-50
2022/03/15 09:10:24;;;;;;;13.65;5.38;;;;;;;19.52;40.66;100797.69;5018041;28;20111;-46
2022/03/15 09:12:52;;;;;;;10.30;4.57;;;;;;;18.92;42.38;100801.91;5018298;28;20139;-46
2022/03/15 09:15:22;;;;;;;11.27;4.80;;;;;;;18.32;43.44;100798.06;5016767;28;20042;-47
2022/03/15 09:17:49;;;;;;;5.80;3.05;;;;;;;18.16;43.43;100792.31;5006500;28;20493;-48
2022/03/15 09:20:24;;;;;;;8.00;3.45;;;;;;;17.69;43.44;100788.03;5005699;28;20441;-45
2022/03/15 09:22:51;;;;;;;8.90;3.60;;;;;;;17.31;43.53;100781.81;5003528;28;20421;-44
2022/03/15 09:25:18;;;;;;;9.38;3.63;;;;;;;16.82;44.43;100768.69;4998454;28;20490;-48
2022/03/15 09:27:47;;;;;;;8.63;3.75;;;;;;;16.43;45.49;100770.19;5002261;28;20049;-49
2022/03/15 09:30:14;;;;;;;7.78;3.38;;;;;;;16.10;46.16;100754.13;5009292;28;20457;-43
2022/03/15 09:32:41;;;;;;;10.00;4.20;;;;;;;16.46;46.27;100756.19;5007584;28;20046;-44
2022/03/15 09:35:08;;;;;;;9.30;3.80;;;;;;;16.78;45.54;100756.53;5008799;28;20046;-48
2022/03/15 09:37:34;;;;;;;7.07;3.50;;;;;;;17.17;45.51;100756.75;5014483;28;20057;-51
2022/03/15 09:40:08;;;;;;;7.38;3.05;;;;;;;16.85;44.77;100762.56;5009672;28;20052;-48
2022/03/15 09:42:36;;;;;;;8.60;4.32;;;;;;;16.39;46.40;100760.69;5005830;28;20431;-49
2022/03/15 09:45:05;;;;;;;9.38;3.38;;;;;;;16.12;46.28;100757.59;4993378;28;20056;-49
2022/03/15 09:47:34;;;;;;;9.32;4.30;;;;;;;16.04;47.18;100738.50;5006211;28;20048;-42
2022/03/15 09:50:06;;;;;;;9.30;3.92;;;;;;;15.85;47.86;100737.88;5025544;28;20056;-44
2022/03/15 09:52:34;;;;;;;8.05;3.92;;;;;;;15.70;47.71;100729.38;5016591;28;20080;-45
2022/03/15 09:55:03;;;;;;;8.65;3.80;;;;;;;15.53;48.31;100724.38;5012554;28;20161;-46
2022/03/15 09:57:31;;;;;;;12.68;3.80;;;;;;;15.45;48.19;100723.59;5029924;28;20049;-46
2022/03/15 10:00:00;;;;;;;12.63;4.72;;;;;;;15.36;48.72;100730.66;5031144;28;20059;-47
2022/03/15 10:02:27;;;;;;;8.82;3.08;;;;;;;15.07;49.06;100724.03;5030693;28;20045;-45
2022/03/15 10:04:56;;;;;;;;;;;;;;;15.35;49.25;100728.94;5026322;28;21090;-42
2022/03/15 10:07:23;;;;;;;8.25;4.07;;;;;;;15.45;48.52;100731.44;5029534;28;20796;-45
2022/03/15 10:09:52;;;;;;;11.02;3.88;;;;;;;15.41;49.36;100731.47;5010775;28;20107;-45
2022/03/15 10:12:18;;;;;;;12.65;4.22;;;;;;;15.27;48.68;100736.00;5003245;28;20177;-48
2022/03/15 10:14:48;;;;;;;13.15;3.28;;;;;;;15.00;49.38;100732.81;5011949;28;20100;-50
2022/03/15 10:17:15;;;;;;;8.25;3.58;;;;;;;15.07;49.49;100731.88;5010067;28;20057;-50
2022/03/15 10:19:51;;;;;;;16.02;5.63;;;;;;;15.18;49.05;100725.66;5025616;28;20049;-49
2022/03/15 10:22:23;;;;;;;8.02;3.42;;;;;;;15.32;49.40;100723.75;5011407;28;20104;-45
2022/03/15 10:24:50;;;;;;;9.93;4.22;;;;;;;15.48;48.29;100723.56;5000798;28;20058;-45
2022/03/15 10:27:17;;;;;;;9.23;3.38;;;;;;;15.26;48.08;100726.41;5009062;28;20057;-45
2022/03/15 10:29:45;;;;;;;9.95;4.45;;;;;;;15.41;49.14;100728.84;5007786;28;20056;-46
2022/03/15 10:32:11;;;;;;;7.95;3.15;;;;;;;15.71;48.70;100719.81;5034047;28;20057;-44
2022/03/15 10:34:38;;;;;;;10.50;3.63;;;;;;;15.97;48.15;100726.44;5032032;28;20072;-46
2022/03/15 10:37:05;;;;;;;11.48;4.18;;;;;;;16.30;47.37;100724.19;5027513;28;20049;-49
2022/03/15 10:39:32;;;;;;;8.98;3.33;;;;;;;16.52;47.45;100716.88;5034436;28;20045;-48
2022/03/15 10:42:01;;;;;;;10.05;3.03;;;;;;;16.73;46.29;100721.75;5031130;28;20053;-43
2022/03/15 10:44:34;;;;;;;10.18;3.45;;;;;;;16.55;45.86;100708.97;5014851;28;20057;-47
2022/03/15 10:55:28;;;;;;;13.18;4.30;;;;;;;15.58;48.38;100703.44;5036501;28;20402;-43
2022/03/15 11:00:37;;;;;;;13.18;4.30;;;;;;;15.51;48.94;100687.00;5029403;28;20766;-43
2022/03/15 11:03:07;;;;;;;10.55;3.33;;;;;;;15.45;47.91;100689.66;4968482;28;20054;-46
2022/03/15 11:05:36;;;;;;;8.75;4.20;;;;;;;15.58;48.28;100680.81;4975985;28;20162;-42
2022/03/15 11:08:05;;;;;;;12.32;3.22;;;;;;;15.61;47.36;100692.94;4978112;28;20126;-41
2022/03/15 11:10:33;;;;;;;8.73;3.15;;;;;;;15.53;48.02;100688.69;4980513;28;20046;-47
2022/03/15 11:13:07;;;;;;;8.95;3.40;;;;;;;15.50;48.93;100685.28;5013622;28;20055;-43
2022/03/15 11:15:42;;;;;;;7.72;3.15;;;;;;;15.44;48.64;100675.78;4981839;28;20150;-41
2022/03/15 11:18:12;;;;;;;7.75;3.42;;;;;;;15.37;47.61;100679.34;4982448;28;20145;-45
2022/03/15 11:20:42;;;;;;;6.65;3.33;;;;;;;15.17;48.53;100677.84;4982297;28;20047;-43
2022/03/15 11:23:11;;;;;;;10.43;3.53;;;;;;;15.14;48.98;100667.44;4961585;28;20175;-43
2022/03/15 11:25:41;;;;;;;7.78;3.50;;;;;;;15.18;49.28;100663.91;4981876;28;20124;-43
2022/03/15 11:28:12;;;;;;;9.65;3.88;;;;;;;15.16;49.43;100666.53;4976705;28;20137;-47
2022/03/15 11:30:41;;;;;;;9.93;4.22;;;;;;;15.20;48.87;100669.09;4980840;28;20149;-45
2022/03/15 11:33:10;;;;;;;9.43;3.75;;;;;;;15.24;48.90;100673.41;4983784;28;20050;-44
2022/03/15 11:35:40;;;;;;;10.35;3.45;;;;;;;15.20;48.59;100671.72;5010461;28;20447;-46
2022/03/15 11:38:09;;;;;;;10.18;3.72;;;;;;;15.20;49.07;100663.88;4975425;28;20059;-42
2022/03/15 11:40:36;;;;;;;4.95;2.38;;;;;;;15.07;48.18;100661.44;4979576;28;20105;-45
2022/03/15 11:43:19;;;;;;;7.88;3.17;;;;;;;14.93;48.28;100663.31;4979040;28;20054;-44